createdAt,value
2022-12-03T00:00:19.575Z,42.07
2022-12-03T00:03:28.505Z,36.03
2022-12-03T00:06:37.368Z,41.10
2022-12-03T00:09:46.368Z,42.78
2022-12-03T00:12:55.369Z,50.03
2022-12-03T00:16:04.462Z,42.47
2022-12-03T00:19:13.367Z,43.27
2022-12-03T00:22:22.367Z,40.70
2022-12-03T00:25:42.990Z,41.05
2022-12-03T00:28:56.303Z,45.20
2022-12-03T00:32:10.160Z,39.10
2022-12-03T00:35:19.368Z,42.73
2022-12-03T00:38:28.370Z,43.13
2022-12-03T00:41:37.365Z,40.13
2022-12-03T00:44:46.364Z,42.30
2022-12-03T00:47:55.366Z,42.80
2022-12-03T00:51:04.372Z,37.97
2022-12-03T00:54:13.363Z,43.92
2022-12-03T00:57:22.364Z,42.17
2022-12-03T01:00:31.362Z,41.95
2022-12-03T01:03:40.363Z,41.73
2022-12-03T01:06:49.366Z,36.47
2022-12-03T01:09:58.363Z,40.15
2022-12-03T01:13:07.366Z,38.67
2022-12-03T01:16:16.429Z,37.42
2022-12-03T01:19:25.365Z,37.57
2022-12-03T01:22:34.364Z,38.83
2022-12-03T01:25:43.365Z,40.88
2022-12-03T01:28:52.364Z,33.80
2022-12-03T01:32:22.364Z,45.13
2022-12-03T01:35:31.364Z,44.33
2022-12-03T01:38:40.365Z,43.07
2022-12-03T01:41:49.376Z,41.85
2022-12-03T01:44:58.784Z,40.75
2022-12-03T01:48:07.369Z,39.40
2022-12-03T01:51:17.305Z,43.23
2022-12-03T01:54:46.376Z,44.27
2022-12-03T01:58:07.698Z,41.92
2022-12-03T02:01:23.788Z,39.30
2022-12-03T02:04:34.471Z,49.08
2022-12-03T02:07:44.462Z,57.23
2022-12-03T02:10:53.303Z,70.50
2022-12-03T02:14:11.797Z,51.35
2022-12-03T02:17:25.487Z,64.82
2022-12-03T02:20:40.682Z,53.33
2022-12-03T02:24:10.473Z,60.37
2022-12-03T02:27:19.368Z,88.50
2022-12-03T02:30:34.074Z,69.55
2022-12-03T02:33:50.203Z,70.68
2022-12-03T02:37:04.529Z,59.90
2022-12-03T02:40:17.200Z,68.50
2022-12-03T02:43:26.413Z,69.23
2022-12-03T02:46:38.438Z,70.47
2022-12-03T02:49:48.410Z,43.33
2022-12-03T02:53:06.260Z,64.28
2022-12-03T02:56:22.281Z,53.97
2022-12-03T02:59:31.364Z,46.67
2022-12-03T03:02:49.589Z,56.28
2022-12-03T03:06:04.144Z,54.50
2022-12-03T03:09:17.648Z,50.17
2022-12-03T03:12:28.365Z,52.63
2022-12-03T03:15:44.494Z,57.13
2022-12-03T03:18:57.200Z,56.60
2022-12-03T03:22:11.153Z,55.00
2022-12-03T03:25:26.301Z,59.40
2022-12-03T03:28:43.247Z,55.20
2022-12-03T03:31:59.888Z,56.33
2022-12-03T03:35:13.366Z,53.35
2022-12-03T03:38:23.301Z,43.85
2022-12-03T03:41:40.561Z,41.88
2022-12-03T03:44:53.341Z,49.00
2022-12-03T03:48:08.141Z,42.93
2022-12-03T03:51:19.366Z,49.17
2022-12-03T03:54:29.093Z,41.25
2022-12-03T03:57:37.780Z,51.85
2022-12-03T04:00:47.764Z,46.93
2022-12-03T04:04:00.434Z,60.03
2022-12-03T04:07:06.062Z,66.55
2022-12-03T04:10:44.640Z,66.15
2022-12-03T04:14:01.078Z,61.88
2022-12-03T04:17:13.365Z,59.30
2022-12-03T04:20:22.468Z,61.70
2022-12-03T04:23:31.363Z,82.25
2022-12-03T04:27:01.365Z,79.00
2022-12-03T04:30:10.367Z,53.95
2022-12-03T04:33:38.800Z,70.23
2022-12-03T04:36:49.365Z,72.33
2022-12-03T04:39:59.404Z,60.88
2022-12-03T04:43:08.301Z,63.28
2022-12-03T04:46:17.481Z,64.40
2022-12-03T04:49:26.406Z,67.87
2022-12-03T04:52:39.932Z,71.17
2022-12-03T04:55:52.660Z,83.15
2022-12-03T04:59:07.233Z,70.57
2022-12-03T05:02:22.436Z,90.57
2022-12-03T05:05:39.952Z,97.00
2022-12-03T05:08:52.627Z,81.83
2022-12-03T05:12:06.009Z,75.60
2022-12-03T05:15:19.365Z,59.70
2022-12-03T05:18:28.376Z,70.22
2022-12-03T05:21:37.363Z,59.37
2022-12-03T05:24:47.406Z,51.47
2022-12-03T05:27:56.300Z,60.35
2022-12-03T05:31:06.578Z,64.80
2022-12-03T05:34:14.712Z,80.53
2022-12-03T05:37:22.781Z,64.20
2022-12-03T05:40:31.683Z,63.93
2022-12-03T05:43:41.410Z,88.03
2022-12-03T05:46:50.309Z,71.85
2022-12-03T06:38:42.740Z,69.63
2022-12-03T06:42:10.781Z,102.47
2022-12-03T06:45:25.757Z,70.05
2022-12-03T06:48:44.923Z,68.88
2022-12-03T06:51:59.697Z,90.68
2022-12-03T06:55:16.434Z,67.47
2022-12-03T06:58:31.182Z,73.63
2022-12-03T07:01:44.266Z,84.90
2022-12-03T07:04:54.981Z,69.53
2022-12-03T07:08:08.550Z,82.20
2022-12-03T07:11:34.780Z,78.47
2022-12-03T07:21:40.081Z,70.15
2022-12-03T07:35:23.599Z,64.45
2022-12-03T07:38:37.293Z,75.97
2022-12-03T07:41:55.956Z,76.10
2022-12-03T07:48:46.754Z,129.50
2022-12-03T07:52:08.417Z,88.20
2022-12-03T07:55:17.450Z,69.20
2022-12-03T08:05:46.493Z,68.03
2022-12-03T08:08:55.538Z,56.25
2022-12-03T08:12:10.482Z,57.83
2022-12-03T08:15:39.331Z,62.97
2022-12-03T08:19:02.961Z,81.03
2022-12-03T08:22:52.627Z,80.20
2022-12-03T08:29:55.784Z,68.20
2022-12-03T08:33:41.715Z,77.80
2022-12-03T08:37:12.947Z,66.83
2022-12-03T08:40:43.696Z,62.70
2022-12-03T08:43:56.809Z,54.55
2022-12-03T08:47:27.322Z,76.78
2022-12-03T08:50:55.527Z,64.45
2022-12-03T08:54:23.885Z,65.97
2022-12-03T09:01:45.905Z,83.85
2022-12-03T09:04:56.486Z,56.47
2022-12-03T09:11:38.710Z,65.73
2022-12-03T09:14:54.551Z,90.83
2022-12-03T09:18:26.449Z,58.95
2022-12-03T09:32:58.733Z,67.67
2022-12-03T09:36:30.204Z,61.50
2022-12-03T09:39:39.963Z,59.45
2022-12-03T09:44:03.171Z,54.50
2022-12-03T09:47:15.332Z,56.70
2022-12-03T09:50:36.370Z,58.20
2022-12-03T09:53:52.113Z,57.58
2022-12-03T10:04:28.019Z,53.83
2022-12-03T10:07:38.515Z,59.80
2022-12-03T10:14:14.283Z,51.58
2022-12-03T10:24:49.772Z,65.17
2022-12-03T10:32:04.672Z,49.63
2022-12-03T10:36:06.343Z,48.90
2022-12-03T10:39:27.563Z,49.23
2022-12-03T10:42:35.881Z,50.17
2022-12-03T10:45:46.038Z,47.88
2022-12-03T10:49:13.501Z,46.88
2022-12-03T10:52:26.152Z,40.85
2022-12-03T10:55:40.302Z,44.40
2022-12-03T10:58:57.135Z,42.37
2022-12-03T11:02:13.059Z,42.60
2022-12-03T11:05:35.125Z,46.10
2022-12-03T11:08:54.716Z,42.50
2022-12-03T11:12:14.063Z,43.27
2022-12-03T11:15:49.581Z,42.40
2022-12-03T11:22:48.655Z,42.28
2022-12-03T11:30:04.980Z,43.60
2022-12-03T11:37:22.991Z,36.75
2022-12-03T11:40:39.795Z,36.35
2022-12-03T11:51:34.012Z,37.60
2022-12-03T11:54:42.357Z,37.30
2022-12-03T12:35:57.139Z,35.43
2022-12-03T12:39:07.029Z,37.67
2022-12-03T12:42:37.779Z,41.28
2022-12-03T12:45:47.415Z,41.22
2022-12-03T12:49:11.350Z,38.10
2022-12-03T12:55:44.826Z,39.03
2022-12-03T12:58:59.889Z,36.75
2022-12-03T13:02:40.326Z,39.13
2022-12-03T13:05:56.778Z,41.33
2022-12-03T13:09:34.176Z,40.60
2022-12-03T13:12:43.618Z,35.03
2022-12-03T13:16:13.475Z,40.58
2022-12-03T13:19:46.707Z,41.17
2022-12-03T13:22:59.471Z,38.00
2022-12-03T13:26:40.536Z,42.00
2022-12-03T13:30:14.413Z,45.30
2022-12-03T13:33:32.848Z,46.60
2022-12-03T13:40:24.079Z,48.47
2022-12-03T13:43:44.499Z,40.37
2022-12-03T13:46:55.033Z,44.75
2022-12-03T13:50:08.571Z,51.38
2022-12-03T13:53:24.942Z,47.58
2022-12-03T13:56:36.067Z,50.40
2022-12-03T13:59:46.599Z,43.70
2022-12-03T14:03:00.606Z,57.58
2022-12-03T14:06:14.592Z,63.10
2022-12-03T14:09:25.471Z,44.65
2022-12-03T14:12:35.112Z,45.13
2022-12-03T14:15:43.579Z,47.73
2022-12-03T14:18:52.683Z,48.00
2022-12-03T14:22:01.591Z,47.85
2022-12-03T14:25:10.578Z,44.20
2022-12-03T14:28:19.382Z,47.20
2022-12-03T14:31:28.528Z,48.97
2022-12-03T14:34:37.367Z,53.67
2022-12-03T14:37:46.395Z,52.42
2022-12-03T14:40:55.373Z,53.38
2022-12-03T14:44:05.005Z,51.30
2022-12-03T14:47:14.718Z,57.33
2022-12-03T14:50:23.433Z,64.38
2022-12-03T14:53:32.425Z,75.53
2022-12-03T14:56:41.422Z,83.55
2022-12-03T15:00:00.165Z,70.57
2022-12-03T15:03:18.236Z,63.53
2022-12-03T15:06:28.367Z,57.40
2022-12-03T15:09:37.376Z,54.72
2022-12-03T15:12:46.385Z,64.05
2022-12-03T15:15:55.376Z,82.60
2022-12-03T15:19:04.376Z,101.00
2022-12-03T15:22:13.688Z,100.40
2022-12-03T15:25:27.400Z,84.63
2022-12-03T15:28:46.690Z,85.45
2022-12-03T15:32:01.392Z,82.77
2022-12-03T15:35:10.379Z,74.03
2022-12-03T15:38:19.390Z,86.72
2022-12-03T15:41:48.389Z,84.70
2022-12-03T15:44:58.370Z,76.25
2022-12-03T15:48:08.120Z,80.93
2022-12-03T15:51:16.678Z,87.53
2022-12-03T15:54:25.377Z,81.38
2022-12-03T15:57:34.367Z,75.90
2022-12-03T16:00:44.422Z,75.43
2022-12-03T16:03:53.306Z,68.60
2022-12-03T16:07:02.309Z,70.53
2022-12-03T16:10:12.154Z,68.28
2022-12-03T16:13:20.305Z,73.63
2022-12-03T16:16:29.457Z,72.05
2022-12-03T16:19:38.304Z,72.57
2022-12-03T16:22:47.412Z,77.30
2022-12-03T16:25:57.207Z,77.38
2022-12-03T16:29:05.422Z,70.30
2022-12-03T16:32:14.566Z,72.68
2022-12-03T16:35:23.302Z,78.33
2022-12-03T16:38:38.605Z,75.77
2022-12-03T16:41:55.594Z,77.13
2022-12-03T16:45:11.416Z,175.55
2022-12-03T16:48:20.411Z,92.55
2022-12-03T16:51:43.225Z,78.07
2022-12-03T16:54:58.281Z,62.97
2022-12-03T16:58:07.371Z,59.08
2022-12-03T17:01:17.162Z,54.15
2022-12-03T17:04:26.307Z,59.42
2022-12-03T17:07:42.729Z,56.87
2022-12-03T17:11:00.843Z,62.70
2022-12-03T17:14:13.374Z,59.33
2022-12-03T17:17:28.075Z,50.78
2022-12-03T17:20:51.343Z,49.08
2022-12-03T17:27:44.873Z,84.20
2022-12-03T17:31:01.468Z,89.80
2022-12-03T17:34:10.371Z,79.30
2022-12-03T17:37:18.837Z,65.40
2022-12-03T17:40:28.380Z,63.20
2022-12-03T17:43:37.373Z,54.87
2022-12-03T17:46:46.476Z,46.67
2022-12-03T17:49:56.702Z,51.08
2022-12-03T17:53:13.105Z,48.92
2022-12-03T17:56:27.834Z,48.07
2022-12-03T17:59:40.431Z,49.53
2022-12-03T18:02:52.264Z,50.67
2022-12-03T18:06:01.370Z,56.30
2022-12-03T18:09:10.368Z,52.58
2022-12-03T18:12:17.960Z,55.43
2022-12-03T18:15:28.369Z,58.00
2022-12-03T18:18:36.025Z,56.15
2022-12-03T18:21:46.368Z,55.35
2022-12-03T18:24:55.372Z,56.85
2022-12-03T18:28:04.376Z,61.87
2022-12-03T18:31:28.129Z,62.97
2022-12-03T18:34:43.367Z,57.78
2022-12-03T18:37:53.099Z,59.72
2022-12-03T18:41:01.368Z,56.88
2022-12-03T18:44:11.718Z,60.00
2022-12-03T18:47:28.233Z,61.77
2022-12-03T18:50:42.131Z,60.15
2022-12-03T18:53:57.134Z,62.17
2022-12-03T18:57:07.366Z,60.78
2022-12-03T19:00:16.367Z,66.73
2022-12-03T19:03:25.408Z,67.57
2022-12-03T19:06:35.408Z,70.38
2022-12-03T19:09:47.951Z,75.35
2022-12-03T19:13:04.238Z,80.45
2022-12-03T19:16:18.162Z,81.87
2022-12-03T19:19:31.368Z,74.63
2022-12-03T19:22:40.367Z,69.28
2022-12-03T19:26:05.647Z,71.80
2022-12-03T19:29:19.370Z,74.97
2022-12-03T19:32:28.367Z,81.93
2022-12-03T19:35:41.393Z,78.03
2022-12-03T19:38:56.680Z,87.45
2022-12-03T19:42:10.578Z,85.35
2022-12-03T19:45:24.075Z,78.53
2022-12-03T19:48:34.368Z,79.03
2022-12-03T19:51:43.366Z,67.23
2022-12-03T19:55:01.070Z,73.32
2022-12-03T19:58:17.392Z,75.85
2022-12-03T20:01:31.421Z,69.78
2022-12-03T20:04:40.366Z,65.60
2022-12-03T20:07:49.400Z,68.30
2022-12-03T20:10:58.368Z,73.38
2022-12-03T20:14:18.834Z,71.50
2022-12-03T20:17:33.620Z,70.00
2022-12-03T20:20:46.368Z,71.40
2022-12-03T20:23:55.366Z,70.70
2022-12-03T20:27:04.372Z,72.75
2022-12-03T20:30:13.368Z,79.95
2022-12-03T20:33:22.367Z,88.38
2022-12-03T20:36:31.369Z,80.70
2022-12-03T20:39:40.369Z,80.63
2022-12-03T20:42:50.198Z,72.90
2022-12-03T20:46:02.703Z,79.45
2022-12-03T20:49:19.568Z,78.18
2022-12-03T20:52:34.224Z,77.70
2022-12-03T20:55:46.368Z,69.20
2022-12-03T20:58:55.682Z,70.57
2022-12-03T21:02:04.429Z,71.13
2022-12-03T21:05:13.367Z,75.05
2022-12-03T21:08:40.226Z,92.23
2022-12-03T21:11:52.367Z,148.70
2022-12-03T21:15:01.472Z,235.25
2022-12-03T21:18:20.183Z,101.50
2022-12-03T21:21:35.501Z,82.50
2022-12-03T21:24:49.369Z,72.73
2022-12-03T21:27:58.369Z,68.20
2022-12-03T21:31:08.151Z,76.18
2022-12-03T21:34:17.302Z,69.57
2022-12-03T21:37:27.022Z,75.28
2022-12-03T21:40:35.414Z,68.97
2022-12-03T21:43:44.410Z,72.13
2022-12-03T21:47:09.146Z,73.15
2022-12-03T21:50:22.367Z,72.72
2022-12-03T21:53:31.369Z,70.68
2022-12-03T21:56:40.367Z,71.00
2022-12-03T21:59:48.851Z,72.43
2022-12-03T22:02:58.455Z,69.95
2022-12-03T22:06:07.368Z,72.53
2022-12-03T22:09:20.552Z,86.70
2022-12-03T22:12:41.922Z,72.77
2022-12-03T22:15:55.318Z,70.07
2022-12-03T22:19:04.368Z,72.55
2022-12-03T22:22:13.373Z,70.07
2022-12-03T22:25:22.370Z,73.80
2022-12-03T22:28:31.369Z,72.00
2022-12-03T22:31:40.368Z,78.20
2022-12-03T22:34:50.407Z,70.65
2022-12-03T22:37:59.304Z,79.32
2022-12-03T22:41:12.112Z,81.75
2022-12-03T22:44:25.327Z,80.47
2022-12-03T22:47:41.070Z,89.20
2022-12-03T22:50:55.364Z,83.40
2022-12-03T22:54:15.004Z,82.50
2022-12-03T22:57:29.135Z,83.70
2022-12-03T23:00:43.366Z,96.30
2022-12-03T23:03:52.418Z,108.03
2022-12-03T23:07:01.366Z,108.22
2022-12-03T23:10:10.366Z,111.97
2022-12-03T23:13:20.718Z,162.20
2022-12-03T23:16:37.029Z,160.60
2022-12-03T23:19:53.916Z,139.40
2022-12-03T23:23:07.259Z,162.77
2022-12-03T23:26:17.100Z,151.48
2022-12-03T23:29:26.095Z,131.63
2022-12-03T23:32:35.406Z,108.67
2022-12-03T23:35:44.405Z,124.53
2022-12-03T23:38:53.412Z,121.75
2022-12-03T23:42:02.708Z,100.88
2022-12-03T23:45:11.407Z,133.15
2022-12-03T23:48:20.409Z,139.87
2022-12-03T23:51:29.718Z,127.57
2022-12-03T23:54:38.717Z,109.97
2022-12-03T23:57:47.408Z,130.18
